Time;durP1;ratioP1;P1;durP2;ratioP2;P2;SDS_P1;SDS_P2;PMS_P1;PMS_P2;Temp;Humidity;BMP_temperature;BMP_pressure;BME280_temperature;BME280_humidity;BME280_pressure;Samples;Min_cycle;Max_cycle;Signal;HPM_P1;HPM_P2
2021/09/26 00:01:08;;;;;;;5.93;4.20;;;;;;;16.81;100.00;99994.17;1630819;85;22326;-63
2021/09/26 00:03:35;;;;;;;6.17;3.67;;;;;;;16.83;100.00;99992.13;1630199;85;21017;-73
2021/09/26 00:06:01;;;;;;;6.13;3.63;;;;;;;16.94;100.00;99990.80;1630786;85;21731;-64
2021/09/26 00:08:28;;;;;;;4.90;3.40;;;;;;;16.80;100.00;99997.33;1629852;85;21579;-69
2021/09/26 00:10:54;;;;;;;6.60;4.30;;;;;;;16.88;100.00;99994.86;1630434;85;21771;-64
2021/09/26 00:13:21;;;;;;;6.50;3.90;;;;;;;16.91;100.00;99984.67;1630475;85;22284;-69
2021/09/26 00:15:48;;;;;;;5.93;4.20;;;;;;;16.77;100.00;99985.41;1630470;84;21018;-63
2021/09/26 00:18:14;;;;;;;5.27;3.80;;;;;;;16.90;100.00;99984.91;1630827;85;21155;-63
2021/09/26 00:20:40;;;;;;;5.03;3.73;;;;;;;17.01;100.00;99967.77;1629584;85;20872;-63
2021/09/26 00:23:07;;;;;;;5.70;4.10;;;;;;;16.96;100.00;99969.48;1630376;85;21102;-62
2021/09/26 00:25:33;;;;;;;5.23;3.53;;;;;;;16.87;100.00;99959.84;1627239;85;21520;-63
2021/09/26 00:27:59;;;;;;;5.13;3.40;;;;;;;16.85;100.00;99960.57;1629798;85;21805;-63
2021/09/26 00:30:26;;;;;;;4.97;3.50;;;;;;;16.80;100.00;99947.31;1630084;85;21109;-72
2021/09/26 00:32:52;;;;;;;6.53;4.10;;;;;;;16.60;100.00;99957.38;1630189;85;21046;-63
2021/09/26 00:35:19;;;;;;;5.80;3.67;;;;;;;16.59;100.00;99964.45;1630414;85;22101;-63
2021/09/26 00:37:45;;;;;;;5.57;3.30;;;;;;;16.78;100.00;99959.41;1630458;85;21115;-64
2021/09/26 00:40:13;;;;;;;5.83;2.87;;;;;;;16.76;100.00;99960.13;1629806;85;20943;-63
2021/09/26 00:42:39;;;;;;;5.97;3.80;;;;;;;16.78;100.00;99960.72;1629772;85;21148;-64
2021/09/26 00:45:07;;;;;;;5.10;3.33;;;;;;;16.80;100.00;99944.68;1630531;85;20998;-62
2021/09/26 00:47:34;;;;;;;3.70;2.40;;;;;;;16.90;100.00;99945.42;1630551;85;21145;-68
2021/09/26 00:50:00;;;;;;;5.20;3.20;;;;;;;16.97;100.00;99935.05;1630468;85;21133;-71
2021/09/26 00:52:27;;;;;;;5.13;3.30;;;;;;;16.97;100.00;99935.05;1629463;85;21192;-70
2021/09/26 00:54:53;;;;;;;6.03;3.30;;;;;;;17.17;100.00;99935.95;1630366;85;21724;-64
2021/09/26 00:57:20;;;;;;;6.87;3.40;;;;;;;16.96;100.00;99940.53;1630423;85;20978;-65
2021/09/26 00:59:47;;;;;;;5.33;3.17;;;;;;;17.01;100.00;99935.38;1630371;85;21718;-64
2021/09/26 01:02:13;;;;;;;5.23;2.83;;;;;;;16.89;100.00;99941.17;1630625;85;21034;-73
2021/09/26 01:04:40;;;;;;;7.57;3.70;;;;;;;16.93;100.00;99943.62;1630977;85;21020;-72
2021/09/26 01:07:17;;;;;;;5.40;3.57;;;;;;;16.92;100.00;99932.29;1632908;86;22237;-65
2021/09/26 01:10:05;;;;;;;4.73;2.90;;;;;;;17.09;100.00;99935.02;1619158;86;20978;-64
2021/09/26 01:12:54;;;;;;;6.27;2.73;;;;;;;17.17;100.00;99930.69;1617687;86;21094;-64
2021/09/26 01:15:55;;;;;;;6.25;3.08;;;;;;;17.05;100.00;99927.30;1638407;85;21834;-64
2021/09/26 01:18:50;;;;;;;4.28;2.92;;;;;;;17.09;100.00;99932.90;1633157;85;21012;-63
2021/09/26 01:21:31;;;;;;;6.53;2.70;;;;;;;17.23;100.00;99928.41;1626234;86;21173;-64
2021/09/26 01:24:55;;;;;;;8.38;3.33;;;;;;;17.47;100.00;99934.94;1626523;86;21649;-64
2021/09/26 01:27:51;;;;;;;5.20;3.27;;;;;;;17.72;100.00;99922.18;1626258;86;21035;-62
2021/09/26 01:30:29;;;;;;;6.90;2.87;;;;;;;17.50;100.00;99918.63;1624180;86;21772;-63
2021/09/26 01:33:07;;;;;;;6.03;3.73;;;;;;;17.50;100.00;99918.63;1624167;86;21036;-62
2021/09/26 01:35:35;;;;;;;6.53;3.27;;;;;;;17.27;100.00;99922.16;1613802;86;21805;-68
2021/09/26 01:38:12;;;;;;;7.97;4.17;;;;;;;16.90;100.00;99929.62;1620590;86;22346;-62
2021/09/26 01:40:53;;;;;;;5.93;3.53;;;;;;;16.90;100.00;99929.62;1620434;86;21076;-60
2021/09/26 01:43:21;;;;;;;5.37;2.87;;;;;;;16.10;100.00;99923.12;1586123;88;21073;-61
2021/09/26 01:45:57;;;;;;;6.87;3.20;;;;;;;16.21;100.00;99918.87;1593426;88;21100;-61
2021/09/26 01:48:41;;;;;;;7.13;3.10;;;;;;;16.21;100.00;99926.76;1615721;87;21765;-61
2021/09/26 01:51:07;;;;;;;6.23;3.23;;;;;;;15.74;100.00;99927.49;1589090;88;21078;-62
2021/09/26 01:53:35;;;;;;;5.43;3.37;;;;;;;15.95;100.00;99927.49;1620475;86;21107;-64
2021/09/26 01:56:02;;;;;;;7.27;3.90;;;;;;;16.10;100.00;99932.31;1613003;86;21726;-64
2021/09/26 01:58:29;;;;;;;6.13;3.33;;;;;;;16.19;100.00;99929.62;1589114;88;20983;-65
2021/09/26 02:00:55;;;;;;;6.33;3.77;;;;;;;16.27;100.00;99925.86;1584753;86;21192;-64
2021/09/26 02:03:22;;;;;;;7.83;3.17;;;;;;;16.39;100.00;99915.34;1613023;86;21142;-65
2021/09/26 02:05:49;;;;;;;6.53;3.20;;;;;;;16.31;100.00;99912.53;1608753;86;21531;-66
2021/09/26 02:08:15;;;;;;;4.90;3.40;;;;;;;16.31;100.00;99912.53;1640051;85;21121;-68
2021/09/26 02:10:44;;;;;;;6.80;3.30;;;;;;;16.24;100.00;99910.53;1632766;85;21828;-65
2021/09/26 02:13:11;;;;;;;6.33;3.10;;;;;;;16.31;100.00;99911.22;1636694;86;21805;-65
2021/09/26 02:15:38;;;;;;;6.17;3.27;;;;;;;16.37;100.00;99908.20;1639666;85;21097;-66
2021/09/26 02:18:05;;;;;;;5.53;3.40;;;;;;;16.39;100.00;99907.44;1635013;85;21545;-65
2021/09/26 02:20:31;;;;;;;4.90;2.97;;;;;;;16.59;100.00;99899.98;1645056;85;21075;-69
2021/09/26 02:22:59;;;;;;;8.60;3.27;;;;;;;16.59;100.00;99899.98;1642493;85;21035;-63
2021/09/26 02:25:25;;;;;;;6.67;3.33;;;;;;;15.64;100.00;99911.43;1643083;86;21140;-65
2021/09/26 02:27:52;;;;;;;6.67;3.30;;;;;;;15.54;100.00;99912.51;1634188;85;22279;-64
2021/09/26 02:30:18;;;;;;;6.93;3.40;;;;;;;15.54;100.00;99912.51;1637885;85;21024;-63
2021/09/26 02:32:45;;;;;;;6.73;3.57;;;;;;;15.69;100.00;99913.44;1641105;85;21019;-63
2021/09/26 02:35:12;;;;;;;4.20;2.80;;;;;;;15.73;100.00;99908.81;1637378;85;22281;-68
2021/09/26 02:37:39;;;;;;;8.70;3.63;;;;;;;15.73;100.00;99908.81;1639123;85;21521;-64
2021/09/26 02:40:07;;;;;;;7.87;3.40;;;;;;;15.91;100.00;99915.83;1607701;86;20971;-65
2021/09/26 02:43:01;;;;;;;5.30;3.03;;;;;;;16.13;100.00;99917.89;1612511;86;21100;-69
2021/09/26 02:45:41;;;;;;;8.63;3.70;;;;;;;16.34;100.00;99919.18;1608074;86;21222;-65
2021/09/26 02:48:18;;;;;;;5.25;3.15;;;;;;;16.34;100.00;99919.18;1616925;86;21540;-69
2021/09/26 02:50:46;;;;;;;7.17;3.50;;;;;;;16.28;100.00;99920.36;1616535;87;22292;-67
2021/09/26 02:53:13;;;;;;;6.50;3.43;;;;;;;16.29;100.00;99919.35;1617046;86;22161;-67
2021/09/26 02:55:40;;;;;;;6.40;3.87;;;;;;;15.72;100.00;99921.67;1615741;86;21089;-65
2021/09/26 02:58:07;;;;;;;7.00;3.93;;;;;;;15.29;100.00;99925.76;1595894;86;21103;-73
2021/09/26 03:00:37;;;;;;;6.57;3.40;;;;;;;15.20;100.00;99921.33;1649416;78;21832;-63
2021/09/26 03:03:26;;;;;;;6.43;3.73;;;;;;;15.20;100.00;99921.33;1784384;78;21448;-63
2021/09/26 03:05:53;;;;;;;8.10;4.37;;;;;;;15.37;100.00;99924.65;1756706;78;21058;-71
2021/09/26 03:08:20;;;;;;;5.37;3.60;;;;;;;15.37;100.00;99925.97;1785306;78;21387;-70
2021/09/26 03:10:53;;;;;;;5.93;4.17;;;;;;;15.40;100.00;99922.38;1787133;78;20992;-66
2021/09/26 03:13:19;;;;;;;8.07;4.03;;;;;;;15.49;100.00;99924.17;1785548;78;21637;-67
2021/09/26 03:15:46;;;;;;;7.57;4.57;;;;;;;15.71;100.00;99922.68;1785203;78;21605;-67
2021/09/26 03:18:12;;;;;;;6.67;4.00;;;;;;;15.79;100.00;99917.09;1784465;78;21143;-66
2021/09/26 03:20:39;;;;;;;6.47;4.03;;;;;;;15.77;100.00;99916.53;1783548;78;21011;-66
2021/09/26 03:23:05;;;;;;;9.23;4.17;;;;;;;15.96;100.00;99913.83;1786593;78;21766;-65
2021/09/26 03:25:32;;;;;;;7.37;3.97;;;;;;;15.85;100.00;99908.04;1784914;78;21704;-65
2021/09/26 03:27:59;;;;;;;10.60;4.40;;;;;;;15.37;100.00;99916.25;1781764;78;21108;-64
2021/09/26 03:30:25;;;;;;;14.87;4.83;;;;;;;15.30;100.00;99922.93;1787117;78;21073;-65
2021/09/26 03:32:52;;;;;;;14.77;5.50;;;;;;;15.18;100.00;99916.00;1790166;80;21548;-67
2021/09/26 03:35:19;;;;;;;11.03;5.57;;;;;;;15.29;100.00;99915.25;1782125;78;21507;-65
2021/09/26 03:37:46;;;;;;;13.47;5.33;;;;;;;15.49;100.00;99909.73;1785349;78;21001;-71
2021/09/26 03:40:13;;;;;;;9.37;4.83;;;;;;;15.49;100.00;99909.73;1784973;78;21062;-64
2021/09/26 03:42:40;;;;;;;11.83;5.33;;;;;;;15.54;100.00;99917.24;1779176;78;21387;-63
2021/09/26 03:45:08;;;;;;;14.07;6.00;;;;;;;15.33;100.00;99917.20;1789775;78;20928;-64
2021/09/26 03:47:34;;;;;;;8.13;4.73;;;;;;;15.63;100.00;99915.09;1783356;78;20926;-64
2021/09/26 03:50:01;;;;;;;11.40;5.23;;;;;;;15.72;100.00;99914.28;1790881;78;20960;-67
2021/09/26 03:52:27;;;;;;;15.60;6.23;;;;;;;15.55;100.00;99912.78;1785140;78;21129;-68
2021/09/26 03:54:54;;;;;;;12.47;5.47;;;;;;;15.64;100.00;99908.00;1789857;78;21574;-62
2021/09/26 03:57:21;;;;;;;15.60;6.60;;;;;;;15.49;100.00;99903.98;1783635;78;20995;-63
2021/09/26 03:59:47;;;;;;;9.93;5.77;;;;;;;15.49;100.00;99903.98;1776516;78;21008;-62
2021/09/26 04:02:13;;;;;;;12.33;5.83;;;;;;;15.50;100.00;99906.09;1802176;78;20967;-64
2021/09/26 04:04:40;;;;;;;14.27;7.53;;;;;;;15.58;100.00;99901.32;1809735;78;21730;-62
2021/09/26 04:07:06;;;;;;;12.23;5.87;;;;;;;15.56;100.00;99917.00;1802817;78;20957;-62
2021/09/26 04:09:33;;;;;;;13.03;6.83;;;;;;;15.74;100.00;99919.61;1804599;78;21515;-62
2021/09/26 04:11:59;;;;;;;17.13;6.80;;;;;;;15.57;100.00;99919.43;1806258;78;21003;-68
2021/09/26 04:14:26;;;;;;;14.27;6.47;;;;;;;15.64;100.00;99914.05;1806937;78;21544;-69
2021/09/26 04:16:52;;;;;;;16.90;7.03;;;;;;;15.73;100.00;99920.64;1764252;79;21132;-62
2021/09/26 04:19:19;;;;;;;16.20;6.80;;;;;;;15.72;100.00;99916.42;1746258;80;21007;-61
2021/09/26 04:21:46;;;;;;;13.60;5.67;;;;;;;15.74;100.00;99908.30;1806150;78;21453;-62
2021/09/26 04:24:13;;;;;;;17.03;6.87;;;;;;;15.98;100.00;99918.33;1807789;78;20964;-70
2021/09/26 04:26:40;;;;;;;16.70;6.60;;;;;;;15.91;100.00;99917.63;1804649;78;21062;-62
2021/09/26 04:29:06;;;;;;;11.40;6.40;;;;;;;15.94;100.00;99907.98;1808747;78;21131;-62
2021/09/26 04:31:33;;;;;;;12.40;5.80;;;;;;;15.84;100.00;99913.02;1808018;78;21005;-61
2021/09/26 04:33:59;;;;;;;10.40;5.57;;;;;;;15.83;100.00;99916.66;1798537;78;20979;-61
2021/09/26 04:36:26;;;;;;;11.47;4.90;;;;;;;16.00;100.00;99918.41;1802285;78;20904;-68
2021/09/26 04:38:52;;;;;;;7.73;4.67;;;;;;;16.09;100.00;99922.81;1805991;78;22278;-62
2021/09/26 04:41:19;;;;;;;7.43;5.23;;;;;;;16.04;100.00;99918.75;1806200;78;21135;-60
2021/09/26 04:43:45;;;;;;;7.87;5.17;;;;;;;16.12;100.00;99917.09;1803875;78;20940;-61
2021/09/26 04:46:12;;;;;;;6.87;5.50;;;;;;;16.25;100.00;99920.02;1806536;78;20930;-67
2021/09/26 04:48:38;;;;;;;7.17;4.70;;;;;;;16.28;100.00;99919.05;1800796;78;21084;-62
2021/09/26 04:51:05;;;;;;;7.47;4.73;;;;;;;16.39;100.00;99923.23;1809263;78;20880;-60
2021/09/26 04:53:31;;;;;;;6.80;4.90;;;;;;;16.44;100.00;99920.70;1808602;78;21130;-61
2021/09/26 04:55:58;;;;;;;9.40;5.40;;;;;;;16.45;100.00;99930.22;1806100;78;21035;-60
2021/09/26 04:58:25;;;;;;;6.63;4.63;;;;;;;16.32;100.00;99926.48;1800261;78;20924;-67
2021/09/26 05:00:51;;;;;;;8.33;4.80;;;;;;;16.33;100.00;99928.91;1803164;78;22347;-60
2021/09/26 05:03:18;;;;;;;7.53;5.50;;;;;;;16.44;100.00;99920.70;1791983;78;20940;-61
2021/09/26 05:05:44;;;;;;;9.67;5.60;;;;;;;16.51;100.00;99921.38;1802904;78;22100;-62
2021/09/26 05:08:11;;;;;;;7.87;5.47;;;;;;;16.58;100.00;99918.13;1801899;78;20952;-67
2021/09/26 05:10:37;;;;;;;7.93;5.60;;;;;;;16.75;100.00;99923.00;1805373;78;21091;-61
2021/09/26 05:13:03;;;;;;;10.87;5.90;;;;;;;16.95;100.00;99923.13;1800894;78;21117;-61
2021/09/26 05:15:31;;;;;;;8.10;5.60;;;;;;;17.13;100.00;99916.39;1800453;78;21042;-62
2021/09/26 05:17:57;;;;;;;8.93;5.80;;;;;;;17.16;100.00;99915.92;1805079;78;21756;-61
2021/09/26 05:20:24;;;;;;;8.83;5.63;;;;;;;17.22;100.00;99918.92;1800051;78;20973;-60
2021/09/26 05:22:50;;;;;;;8.83;5.07;;;;;;;17.28;100.00;99915.09;1804118;78;20928;-60
2021/09/26 05:25:17;;;;;;;9.03;5.90;;;;;;;17.59;100.00;99913.80;1801963;78;21580;-60
2021/09/26 05:27:43;;;;;;;8.57;6.17;;;;;;;17.19;100.00;99917.27;1803373;78;21035;-62
2021/09/26 05:30:11;;;;;;;8.73;5.50;;;;;;;17.43;100.00;99916.69;1801059;78;21130;-60
2021/09/26 05:32:38;;;;;;;9.07;5.63;;;;;;;17.29;100.00;99916.67;1806154;78;20951;-66
2021/09/26 05:35:06;;;;;;;10.50;5.67;;;;;;;17.41;100.00;99916.10;1800503;78;21420;-60
2021/09/26 05:37:33;;;;;;;8.33;5.90;;;;;;;17.37;100.00;99914.98;1799177;78;21481;-63
2021/09/26 05:39:59;;;;;;;7.73;5.00;;;;;;;17.38;100.00;99916.57;1800613;78;20992;-60
2021/09/26 05:42:25;;;;;;;8.73;5.73;;;;;;;17.51;100.00;99907.87;1728582;82;21136;-63
2021/09/26 05:44:52;;;;;;;9.03;5.53;;;;;;;17.56;100.00;99909.78;1792457;78;21048;-61
2021/09/26 05:47:18;;;;;;;8.33;5.43;;;;;;;17.85;100.00;99907.94;1796510;78;21029;-60
2021/09/26 05:49:45;;;;;;;10.30;5.80;;;;;;;18.16;100.00;99901.29;1806937;78;21471;-61
2021/09/26 05:52:11;;;;;;;7.57;5.00;;;;;;;18.30;100.00;99900.97;1801589;78;21031;-60
2021/09/26 05:54:39;;;;;;;7.73;5.00;;;;;;;18.33;100.00;99903.89;1805194;78;21158;-65
2021/09/26 05:57:06;;;;;;;9.13;5.93;;;;;;;18.42;100.00;99909.58;1802606;78;20963;-60
2021/09/26 05:59:37;;;;;;;7.83;5.27;;;;;;;18.34;100.00;99904.72;1800813;78;21001;-61
2021/09/26 06:02:02;;;;;;;6.93;5.60;;;;;;;18.41;100.00;99893.45;1800851;78;21075;-61
2021/09/26 06:04:28;;;;;;;7.10;4.10;;;;;;;18.72;100.00;99896.02;1798987;78;20993;-67
2021/09/26 06:06:54;;;;;;;8.17;4.73;;;;;;;19.24;100.00;99894.20;1803082;78;21158;-61
2021/09/26 06:09:21;;;;;;;6.80;4.50;;;;;;;19.73;100.00;99888.08;1799973;78;21132;-62
2021/09/26 06:11:47;;;;;;;8.20;4.90;;;;;;;20.24;100.00;99884.48;1799469;78;20936;-61
2021/09/26 06:14:13;;;;;;;10.00;4.97;;;;;;;20.96;100.00;99873.19;1804426;78;20972;-61
2021/09/26 06:16:40;;;;;;;7.17;4.70;;;;;;;21.45;100.00;99862.17;1800296;78;21421;-67
2021/09/26 06:19:07;;;;;;;6.43;4.10;;;;;;;22.04;100.00;99856.81;1800649;78;21085;-60
2021/09/26 06:21:33;;;;;;;7.17;4.43;;;;;;;22.43;100.00;99855.70;1799039;78;20886;-61
2021/09/26 06:24:00;;;;;;;6.50;4.43;;;;;;;22.96;100.00;99860.00;1802389;78;20972;-61
2021/09/26 06:26:26;;;;;;;5.37;3.87;;;;;;;23.31;100.00;99864.83;1805208;78;20959;-62
2021/09/26 06:28:52;;;;;;;6.97;4.30;;;;;;;23.47;100.00;99857.53;1803667;78;20996;-62
2021/09/26 06:31:19;;;;;;;6.87;3.60;;;;;;;23.54;100.00;99857.47;1806065;78;22379;-60
2021/09/26 06:33:46;;;;;;;6.37;3.60;;;;;;;23.41;100.00;99851.47;1800661;78;21564;-62
2021/09/26 06:36:12;;;;;;;5.40;3.70;;;;;;;23.38;100.00;99853.88;1802532;78;20971;-61
2021/09/26 06:38:39;;;;;;;4.93;3.70;;;;;;;23.80;100.00;99853.29;1793787;78;21016;-69
2021/09/26 06:41:05;;;;;;;5.70;3.53;;;;;;;24.22;100.00;99843.27;1805566;78;21109;-62
2021/09/26 06:43:32;;;;;;;4.90;2.97;;;;;;;24.87;100.00;99840.64;1799685;78;21148;-62
2021/09/26 06:45:58;;;;;;;5.53;3.03;;;;;;;25.09;98.46;99847.52;1804897;79;20963;-63
2021/09/26 06:48:25;;;;;;;5.63;2.90;;;;;;;25.23;99.43;99848.41;1805373;78;20904;-70
2021/09/26 06:50:51;;;;;;;6.07;3.40;;;;;;;25.74;92.58;99852.12;1798973;78;21512;-65
2021/09/26 06:53:18;;;;;;;5.33;2.80;;;;;;;25.85;90.63;99858.89;1800116;78;22026;-63
2021/09/26 06:55:44;;;;;;;5.55;2.92;;;;;;;26.11;86.63;99859.23;1801543;78;21529;-62
2021/09/26 06:58:10;;;;;;;6.28;3.65;;;;;;;26.12;80.83;99877.38;1797948;78;20991;-63
2021/09/26 07:00:37;;;;;;;6.72;3.47;;;;;;;25.96;75.46;99872.31;1797979;78;21437;-63
2021/09/26 07:03:03;;;;;;;4.72;3.12;;;;;;;25.54;75.72;99883.16;1797636;78;21115;-63
2021/09/26 07:05:30;;;;;;;6.03;3.40;;;;;;;24.88;79.05;99885.66;1803484;78;21095;-62
2021/09/26 07:07:56;;;;;;;5.53;3.33;;;;;;;24.50;83.32;99888.27;1804147;78;21115;-65
2021/09/26 07:10:23;;;;;;;5.00;3.17;;;;;;;24.09;91.44;99895.07;1797717;78;20920;-64
2021/09/26 07:12:49;;;;;;;5.87;3.27;;;;;;;23.66;93.26;99890.91;1802228;78;21471;-61
2021/09/26 07:15:15;;;;;;;4.03;3.20;;;;;;;23.16;100.00;99884.33;1793755;78;21009;-80
2021/09/26 07:17:42;;;;;;;5.57;3.00;;;;;;;22.99;100.00;99892.66;1799419;78;21066;-68
2021/09/26 07:20:09;;;;;;;5.27;3.40;;;;;;;22.66;100.00;99894.66;1797968;78;21126;-63
2021/09/26 07:22:38;;;;;;;7.63;3.20;;;;;;;22.29;100.00;99888.66;1800351;78;21546;-72
2021/09/26 07:25:06;;;;;;;5.70;3.27;;;;;;;22.23;100.00;99891.05;1795130;78;21077;-76
2021/09/26 07:27:33;;;;;;;6.60;3.00;;;;;;;21.99;100.00;99892.13;1803978;78;20979;-65
2021/09/26 07:30:03;;;;;;;5.53;3.37;;;;;;;21.94;100.00;99888.16;1800433;78;21022;-64
2021/09/26 07:32:30;;;;;;;5.10;2.83;;;;;;;21.89;100.00;99887.35;1802447;78;21093;-69
2021/09/26 07:34:56;;;;;;;9.10;3.40;;;;;;;21.65;100.00;99888.43;1802813;78;21040;-72
2021/09/26 07:37:23;;;;;;;5.47;3.40;;;;;;;21.72;100.00;99893.73;1801002;78;20983;-63
2021/09/26 07:39:49;;;;;;;7.27;3.33;;;;;;;21.38;100.00;99881.52;1732736;82;22780;-63
2021/09/26 07:42:16;;;;;;;6.17;3.00;;;;;;;21.32;100.00;99888.63;1804333;78;20932;-64
2021/09/26 07:44:42;;;;;;;5.43;2.97;;;;;;;21.28;100.00;99888.09;1803016;78;21142;-73
2021/09/26 07:47:09;;;;;;;4.57;2.90;;;;;;;21.53;100.00;99890.81;1764210;81;21356;-64
2021/09/26 07:49:36;;;;;;;5.27;3.00;;;;;;;21.74;100.00;99888.16;1806303;78;21037;-67
2021/09/26 07:52:04;;;;;;;5.50;3.13;;;;;;;22.07;100.00;99887.59;1799000;78;21489;-69
2021/09/26 07:54:31;;;;;;;5.50;2.73;;;;;;;22.47;100.00;99881.97;1806181;78;20999;-68
2021/09/26 07:56:59;;;;;;;5.07;2.90;;;;;;;22.78;100.00;99889.83;1793839;78;21131;-69
2021/09/26 07:59:26;;;;;;;4.83;2.70;;;;;;;23.42;95.66;99884.97;1802126;77;21078;-70
2021/09/26 08:01:54;;;;;;;4.50;2.60;;;;;;;24.26;82.95;99886.12;1799379;77;21073;-71
2021/09/26 08:04:21;;;;;;;4.33;2.30;;;;;;;24.87;70.69;99882.75;1806075;77;21092;-71
2021/09/26 08:06:48;;;;;;;4.10;2.10;;;;;;;25.34;63.11;99878.91;1800526;77;21265;-71
2021/09/26 08:09:14;;;;;;;4.50;2.27;;;;;;;25.41;58.19;99884.13;1803087;77;22345;-69
2021/09/26 08:11:42;;;;;;;4.07;2.60;;;;;;;24.98;58.25;99890.87;1800442;78;21682;-66
2021/09/26 08:14:09;;;;;;;4.67;2.60;;;;;;;24.49;60.06;99889.34;1809125;77;20984;-66
2021/09/26 08:16:36;;;;;;;4.30;2.30;;;;;;;24.16;62.13;99897.66;1810281;77;21015;-67
2021/09/26 08:19:03;;;;;;;4.83;2.67;;;;;;;24.04;62.63;99891.38;1802693;77;20971;-70
2021/09/26 08:21:30;;;;;;;4.50;1.83;;;;;;;23.85;65.43;99895.03;1798377;78;22376;-67
2021/09/26 08:23:56;;;;;;;4.33;2.40;;;;;;;23.77;65.41;99885.78;1799965;78;21160;-67
2021/09/26 08:26:23;;;;;;;5.47;2.40;;;;;;;23.63;58.50;99891.45;1796321;77;21022;-67
2021/09/26 08:28:49;;;;;;;6.80;2.47;;;;;;;23.38;58.32;99895.91;1798801;77;21037;-69
2021/09/26 08:31:16;;;;;;;5.33;2.83;;;;;;;23.34;60.15;99901.52;1797754;78;21042;-65
2021/09/26 08:33:44;;;;;;;4.37;2.27;;;;;;;23.37;60.37;99900.94;1799974;78;22086;-67
2021/09/26 08:36:11;;;;;;;5.20;2.70;;;;;;;23.11;63.57;99896.84;1801983;78;21109;-68
2021/09/26 08:38:38;;;;;;;4.87;2.60;;;;;;;23.13;62.84;99900.83;1805080;78;21080;-66
2021/09/26 08:41:04;;;;;;;5.07;2.00;;;;;;;22.80;65.84;99904.95;1796332;78;21629;-74
2021/09/26 08:43:31;;;;;;;4.20;2.23;;;;;;;22.67;68.15;99902.89;1799485;78;21097;-69
2021/09/26 08:45:58;;;;;;;7.53;2.70;;;;;;;22.95;68.50;99898.26;1804338;78;21776;-66
2021/09/26 08:48:24;;;;;;;5.17;2.40;;;;;;;22.54;73.10;99903.73;1800599;78;21472;-65
2021/09/26 08:50:50;;;;;;;6.63;2.57;;;;;;;22.30;75.61;99901.39;1798336;78;20995;-66
2021/09/26 08:53:18;;;;;;;6.43;2.60;;;;;;;22.25;77.18;99909.38;1796890;78;20935;-66
2021/09/26 08:55:44;;;;;;;4.60;2.30;;;;;;;22.25;78.60;99909.38;1799885;78;21156;-67
2021/09/26 08:58:11;;;;;;;4.80;2.07;;;;;;;22.25;78.47;99901.41;1801535;78;21131;-66
2021/09/26 09:00:37;;;;;;;5.57;2.27;;;;;;;22.53;75.88;99898.67;1799363;78;21033;-69
2021/09/26 09:03:14;;;;;;;4.00;2.30;;;;;;;22.75;69.99;99906.30;1795157;77;21014;-74
2021/09/26 09:05:41;;;;;;;5.77;2.43;;;;;;;22.73;70.51;99903.11;1798197;77;21176;-69
2021/09/26 09:08:14;;;;;;;5.33;2.50;;;;;;;22.78;71.11;99908.42;1795093;77;21073;-67
2021/09/26 09:11:00;;;;;;;7.20;2.70;;;;;;;22.41;74.04;99899.52;1799213;77;21158;-64
2021/09/26 09:13:36;;;;;;;5.37;1.90;;;;;;;22.25;78.01;99902.20;1793824;77;21020;-65
2021/09/26 09:16:14;;;;;;;6.93;2.60;;;;;;;22.69;80.37;99902.89;1796335;78;20962;-68
2021/09/26 09:18:55;;;;;;;5.97;2.20;;;;;;;23.31;78.45;99897.53;1784579;78;21477;-67
2021/09/26 09:21:29;;;;;;;3.53;1.70;;;;;;;23.93;70.22;99895.22;1799153;78;20939;-68
2021/09/26 09:24:26;;;;;;;4.50;1.90;;;;;;;25.00;55.77;99886.05;1798404;78;21182;-76
2021/09/26 09:26:49;;;;;;;11.00;6.73;;;;;;;25.52;51.40;99881.31;1784365;78;20884;-68
2021/09/26 09:29:17;;;;;;;4.33;1.80;;;;;;;25.85;51.01;99897.61;1711659;82;21083;-67
2021/09/26 09:31:50;;;;;;;2.97;1.73;;;;;;;26.35;46.93;99891.64;1801442;78;20991;-75
2021/09/26 09:34:36;;;;;;;4.73;2.30;;;;;;;26.53;46.14;99897.46;1802318;78;21127;-65
2021/09/26 09:37:22;;;;;;;4.97;2.23;;;;;;;26.65;44.59;99886.27;1800327;78;21128;-67
2021/09/26 09:40:16;;;;;;;3.73;2.17;;;;;;;26.49;43.43;99885.00;1802469;78;21048;-70
2021/09/26 09:42:48;;;;;;;4.63;2.63;;;;;;;26.55;43.90;99894.48;1800891;78;21492;-77
2021/09/26 09:45:25;;;;;;;5.93;3.10;;;;;;;26.49;43.40;99892.47;1801098;78;21938;-67
2021/09/26 09:48:19;;;;;;;4.77;2.40;;;;;;;26.49;43.53;99882.33;1801034;78;20950;-67
2021/09/26 09:51:04;;;;;;;6.83;1.93;;;;;;;26.61;43.09;99889.29;1799597;78;21755;-68
2021/09/26 09:53:41;;;;;;;5.20;1.90;;;;;;;26.75;40.98;99881.27;1787698;78;20968;-67
2021/09/26 09:56:20;;;;;;;4.23;2.37;;;;;;;26.99;39.95;99881.79;1798700;78;20978;-68
2021/09/26 09:58:54;;;;;;;4.40;1.70;;;;;;;27.02;39.74;99885.20;1802739;78;21614;-72
2021/09/26 10:01:30;;;;;;;4.80;1.80;;;;;;;27.09;40.27;99892.27;1799221;78;21036;-71
2021/09/26 10:04:00;;;;;;;3.57;1.77;;;;;;;27.15;39.90;99887.62;1801647;78;21781;-67
2021/09/26 10:06:35;;;;;;;4.75;2.35;;;;;;;26.98;40.24;99894.93;1810942;78;21672;-68
2021/09/26 10:09:23;;;;;;;3.87;1.73;;;;;;;26.87;40.33;99891.67;1810795;78;21220;-75
2021/09/26 10:12:01;;;;;;;3.70;1.90;;;;;;;27.01;40.22;99890.32;1810517;78;21035;-68
2021/09/26 10:14:31;;;;;;;4.70;1.77;;;;;;;27.59;39.13;99880.16;1810730;78;21063;-76
2021/09/26 10:17:01;;;;;;;4.20;1.57;;;;;;;27.71;38.38;99874.23;1810616;78;21200;-67
2021/09/26 10:19:28;;;;;;;3.53;1.87;;;;;;;27.78;37.80;99872.50;1810239;78;21034;-68
2021/09/26 10:21:57;;;;;;;4.33;2.20;;;;;;;28.07;36.51;99883.52;1808398;77;21031;-69
2021/09/26 10:24:26;;;;;;;6.37;2.23;;;;;;;27.84;36.88;99879.28;1811483;78;21028;-72
2021/09/26 10:26:53;;;;;;;3.77;1.50;;;;;;;28.22;36.12;99892.23;1809050;78;21002;-67
2021/09/26 10:29:21;;;;;;;3.67;1.63;;;;;;;28.13;35.58;99875.56;1812524;77;22089;-71
2021/09/26 10:31:49;;;;;;;3.40;1.60;;;;;;;28.25;35.54;99888.94;1811574;77;21039;-68
2021/09/26 10:34:16;;;;;;;4.13;1.77;;;;;;;28.53;34.20;99892.22;1807887;78;20999;-72
2021/09/26 10:36:43;;;;;;;4.23;1.40;;;;;;;28.12;33.19;99890.62;1808597;78;21567;-70
2021/09/26 10:39:10;;;;;;;3.73;1.90;;;;;;;28.44;32.87;99890.84;1812051;78;21121;-69
2021/09/26 10:41:36;;;;;;;3.30;1.57;;;;;;;28.34;32.48;99899.94;1811028;78;21062;-68
2021/09/26 10:44:26;;;;;;;4.07;1.67;;;;;;;27.59;33.53;99896.77;1809433;77;20937;-83
2021/09/26 10:47:23;;;;;;;3.67;1.60;;;;;;;27.05;35.22;99907.87;1812318;78;21674;-70
2021/09/26 10:50:11;;;;;;;3.43;1.80;;;;;;;26.59;37.37;99914.17;1809249;77;20937;-72
2021/09/26 10:52:46;;;;;;;3.83;1.83;;;;;;;26.17;38.61;99912.00;1806568;78;21029;-70
2021/09/26 10:55:24;;;;;;;3.60;1.60;;;;;;;26.07;37.94;99902.86;1812987;78;21131;-80
2021/09/26 10:58:07;;;;;;;4.80;2.00;;;;;;;25.94;38.30;99905.73;1807587;78;21065;-68
2021/09/26 11:00:39;;;;;;;5.03;1.90;;;;;;;26.37;38.49;99915.66;1806300;77;21481;-72
2021/09/26 11:03:07;;;;;;;;;;;;;;;26.49;38.11;99914.40;1804461;78;20994;-80
2021/09/26 11:05:39;;;;;;;3.67;1.90;;;;;;;26.76;37.51;99916.26;1803038;78;20516;-67
2021/09/26 11:08:10;;;;;;;6.00;1.90;;;;;;;26.79;37.70;99920.47;1803155;78;21126;-65
2021/09/26 11:10:48;;;;;;;4.40;1.67;;;;;;;26.85;37.54;99905.88;1799781;78;20992;-65
2021/09/26 11:13:23;;;;;;;4.23;1.80;;;;;;;27.15;36.16;99910.36;1795521;78;22327;-66
2021/09/26 11:16:15;;;;;;;2.33;1.17;;;;;;;27.27;34.82;99903.92;1802619;78;20988;-68
2021/09/26 11:18:53;;;;;;;3.33;1.60;;;;;;;27.50;33.59;99889.21;1790747;78;20973;-78
2021/09/26 11:21:46;;;;;;;3.63;1.20;;;;;;;27.41;34.06;99893.96;1808066;78;21087;-68
2021/09/26 11:24:33;;;;;;;4.13;1.30;;;;;;;27.56;33.01;99897.38;1801360;78;21442;-76
2021/09/26 11:27:18;;;;;;;2.53;1.20;;;;;;;27.42;31.40;99886.72;1800594;78;21051;-66
2021/09/26 11:29:51;;;;;;;4.90;1.50;;;;;;;27.37;31.72;99895.66;1798355;78;21592;-77
2021/09/26 11:32:31;;;;;;;2.37;1.30;;;;;;;27.41;31.77;99900.66;1799819;78;21403;-66
2021/09/26 11:35:01;;;;;;;3.63;1.70;;;;;;;27.36;31.83;99904.80;1803242;78;21789;-81
2021/09/26 11:37:43;;;;;;;6.47;1.80;;;;;;;27.39;31.96;99906.09;1792626;79;21636;-79
2021/09/26 11:40:14;;;;;;;2.50;1.50;;;;;;;27.53;31.82;99918.84;1805564;78;20992;-67